Portada
METAR-TAF:

METAR-TAF

Aeropuertos :

Aeropuerto de Gran Canaria

Gran Canaria, España

latitud: 27-56N, longitud: 015-23W, altitud: 23 m

Observación

El informe se hizo hace 14 minutos, a las 22:00 UTC
Viento 13 kt del norte
Temperatura 21°C
Humedad 73%
Presión 1018 hPa
Visibilidad 10 km o más
Nubes dispersas a una altura de 3000 ft

METAR: GCLP 192200Z 01013KT 9999 SCT030 21/16 Q1018 NOSIG

Hora: 23:14 (22:14 UTC)

Pronóstico

El informe se hizo hace 2 horas y 14 minutos, a las 20:00 UTC
Pronóstico válido del 19 a las 21 UTC al 20 a las 21 UTC
Viento 10 kt del norte-noroeste
Visibilidad 10 km o más
Escasas nubes a una altura de 2500 ft

TAF: GCLP 192000Z 1921/2021 34010KT 9999 FEW025 TX26/2015Z TN19/2005Z

Observaciones y pronósticos meteorológicos de más de 4000 aeropuertos (mensajes METAR y TAF).

Los puntos amarillos y rojos representan las estaciones disponibles.

Ponga el ratón en el punto deseado para ver el nombre de la estación.

Haga clic para ver las observaciones y los pronósticos meteorológicos.

Para cambiar el mapa : haga clic en los botones verdes con una cruz de color negro para hacer un zoom, en el botón verde con un guión para alejar o en las flechas verdes para mapas adyacentes.


METAR-TAF: